Time;durP1;ratioP1;P1;durP2;ratioP2;P2;SDS_P1;SDS_P2;PMS_P1;PMS_P2;Temp;Humidity;BMP_temperature;BMP_pressure;BME280_temperature;BME280_humidity;BME280_pressure;Samples;Min_cycle;Max_cycle;Signal;HPM_P1;HPM_P2
2024/02/19 00:01:00;;;;;;;52.50;49.85;;;;;;;;;;5063034;28;20849;-50
2024/02/19 00:03:27;;;;;;;50.00;47.50;;;;;;;;;;5064855;28;20062;-51
2024/02/19 00:05:52;;;;;;;49.70;47.20;;;;;;;;;;5070394;28;20047;-54
2024/02/19 00:08:18;;;;;;;50.05;47.53;;;;;;;;;;5063491;28;20036;-51
2024/02/19 00:10:43;;;;;;;49.42;46.92;;;;;;;;;;5063016;28;20494;-56
2024/02/19 00:13:08;;;;;;;51.88;49.28;;;;;;;;;;5062770;28;20577;-53
2024/02/19 00:15:34;;;;;;;49.90;47.38;;;;;;;;;;5066714;28;20041;-50
2024/02/19 00:17:59;;;;;;;48.35;45.90;;;;;;;;;;5063633;28;20036;-53
2024/02/19 00:20:25;;;;;;;50.65;48.13;;;;;;;;;;5064604;28;20025;-51
2024/02/19 00:22:50;;;;;;;50.28;47.72;;;;;;;;;;5066330;28;20029;-52
2024/02/19 00:25:17;;;;;;;52.15;49.53;;;;;;;;;;5064466;28;20081;-50
2024/02/19 00:27:42;;;;;;;47.85;45.42;;;;;;;;;;5063601;28;20037;-52
2024/02/19 00:30:08;;;;;;;50.47;47.95;;;;;;;;;;5063172;28;20043;-54
2024/02/19 00:32:34;;;;;;;47.83;45.40;;;;;;;;;;5064059;28;20064;-54
2024/02/19 00:34:59;;;;;;;49.15;46.67;;;;;;;;;;5065314;28;20153;-51
2024/02/19 00:37:25;;;;;;;49.25;46.75;;;;;;;;;;5066183;28;20036;-52
2024/02/19 00:39:50;;;;;;;50.92;48.35;;;;;;;;;;5062920;28;20564;-52
2024/02/19 00:42:16;;;;;;;53.85;51.05;;;;;;;;;;5064623;28;20044;-54
2024/02/19 00:44:41;;;;;;;51.17;48.63;;;;;;;;;;5065875;28;20032;-54
2024/02/19 00:47:06;;;;;;;56.50;53.63;;;;;;;;;;5067852;28;20036;-51
2024/02/19 00:49:32;;;;;;;51.72;49.13;;;;;;;;;;5061943;28;20033;-54
2024/02/19 00:51:57;;;;;;;52.35;49.72;;;;;;;;;;5062410;28;20116;-52
2024/02/19 00:54:23;;;;;;;52.28;49.65;;;;;;;;;;5065343;28;20108;-52
2024/02/19 00:56:48;;;;;;;54.63;51.90;;;;;;;;;;5059632;28;20071;-51
2024/02/19 00:59:13;;;;;;;55.65;52.85;;;;;;;;;;5067052;28;20024;-55
2024/02/19 01:01:39;;;;;;;58.65;55.70;;;;;;;;;;5063991;28;20036;-53
2024/02/19 01:04:05;;;;;;;57.03;54.17;;;;;;;;;;5061845;28;20519;-51
2024/02/19 01:06:31;;;;;;;60.28;57.28;;;;;;;;;;5059744;28;20044;-54
2024/02/19 01:08:57;;;;;;;57.92;55.00;;;;;;;;;;5060771;28;20029;-56
2024/02/19 01:11:22;;;;;;;61.22;58.15;;;;;;;;;;5063682;28;20458;-56
2024/02/19 01:13:48;;;;;;;62.45;59.30;;;;;;;;;;5060431;28;20056;-52
2024/02/19 01:16:13;;;;;;;59.92;56.92;;;;;;;;;;5064445;28;20040;-54
2024/02/19 01:18:38;;;;;;;62.85;59.70;;;;;;;;;;5064429;28;20527;-52
2024/02/19 01:21:04;;;;;;;56.10;53.30;;;;;;;;;;5065954;28;20115;-55
2024/02/19 01:23:30;;;;;;;52.55;49.90;;;;;;;;;;5062226;28;20025;-53
2024/02/19 01:25:55;;;;;;;52.70;50.05;;;;;;;;;;5063456;28;20343;-53
2024/02/19 01:28:21;;;;;;;57.45;54.58;;;;;;;;;;5064720;28;20362;-52
2024/02/19 01:30:47;;;;;;;55.10;52.33;;;;;;;;;;5063073;28;20148;-51
2024/02/19 01:33:12;;;;;;;57.60;54.70;;;;;;;;;;5063161;28;20064;-54
2024/02/19 01:35:37;;;;;;;57.42;54.50;;;;;;;;;;5062423;28;20043;-56
2024/02/19 01:38:04;;;;;;;56.45;53.63;;;;;;;;;;5029248;28;1012455;-54
2024/02/19 01:40:29;;;;;;;56.92;54.03;;;;;;;;;;5063263;28;20043;-52
2024/02/19 01:43:04;;;;;;;57.33;54.47;;;;;;;;;;5062948;28;20049;-54
2024/02/19 01:45:30;;;;;;;58.53;55.58;;;;;;;;;;5064201;28;20040;-53
2024/02/19 01:47:58;;;;;;;59.97;56.97;;;;;;;;;;5064061;28;20041;-54
2024/02/19 01:50:31;;;;;;;56.22;53.40;;;;;;;;;;5063928;28;20033;-55
2024/02/19 01:52:57;;;;;;;57.50;54.60;;;;;;;;;;5067236;28;20044;-54
2024/02/19 01:55:25;;;;;;;57.53;54.63;;;;;;;;;;5063461;28;20024;-54
2024/02/19 01:57:51;;;;;;;56.95;54.13;;;;;;;;;;5061389;28;20028;-56
2024/02/19 02:00:18;;;;;;;59.85;56.85;;;;;;;;;;5065105;28;20040;-52
2024/02/19 02:02:43;;;;;;;60.80;57.75;;;;;;;;;;5061840;28;20040;-55
2024/02/19 02:05:11;;;;;;;64.15;60.83;;;;;;;;;;5066117;28;20075;-54
2024/02/19 02:07:36;;;;;;;55.65;52.83;;;;;;;;;;5062293;28;20067;-52
2024/02/19 02:10:06;;;;;;;62.80;59.60;;;;;;;;;;5062184;28;20120;-55
2024/02/19 02:12:32;;;;;;;57.83;54.92;;;;;;;;;;5063454;28;20032;-52
2024/02/19 02:14:57;;;;;;;56.63;53.78;;;;;;;;;;5060250;28;20496;-54
2024/02/19 02:17:22;;;;;;;60.22;57.22;;;;;;;;;;5064629;28;20032;-52
2024/02/19 02:19:48;;;;;;;61.60;58.53;;;;;;;;;;5064825;28;20132;-55
2024/02/19 02:22:13;;;;;;;62.63;59.47;;;;;;;;;;5064393;28;20050;-56
2024/02/19 02:24:39;;;;;;;59.80;56.78;;;;;;;;;;5062771;28;20029;-52
2024/02/19 02:27:05;;;;;;;56.03;53.20;;;;;;;;;;5064780;28;20123;-55
2024/02/19 02:29:30;;;;;;;56.85;53.95;;;;;;;;;;5064147;28;20115;-55
2024/02/19 02:31:56;;;;;;;56.05;53.22;;;;;;;;;;5060264;28;20036;-55
2024/02/19 02:34:22;;;;;;;55.20;52.40;;;;;;;;;;5059247;28;20486;-56
2024/02/19 02:36:48;;;;;;;54.03;51.28;;;;;;;;;;5060356;28;20085;-52
2024/02/19 02:39:14;;;;;;;52.47;49.65;;;;;;;;;;5061918;28;20048;-54
2024/02/19 02:41:40;;;;;;;52.40;49.70;;;;;;;;;;5064545;28;20032;-51
2024/02/19 02:44:06;;;;;;;54.38;51.58;;;;;;;;;;5063736;28;20102;-50
2024/02/19 02:46:32;;;;;;;51.28;48.70;;;;;;;;;;5060986;28;20045;-50
2024/02/19 02:48:58;;;;;;;52.13;49.42;;;;;;;;;;5059416;28;20032;-61
2024/02/19 02:51:23;;;;;;;47.83;45.22;;;;;;;;;;5064955;28;20058;-62
2024/02/19 02:53:48;;;;;;;44.08;41.88;;;;;;;;;;5060260;28;20175;-62
2024/02/19 02:56:20;;;;;;;45.45;43.15;;;;;;;;;;5061769;28;20036;-62
2024/02/19 02:58:49;;;;;;;47.28;44.88;;;;;;;;;;5067325;28;20076;-61
2024/02/19 03:01:20;;;;;;;46.90;44.50;;;;;;;;;;5061869;28;20119;-61
2024/02/19 03:03:45;;;;;;;43.22;41.03;;;;;;;;;;5067061;28;20032;-62
2024/02/19 03:06:11;;;;;;;43.50;41.15;;;;;;;;;;5061359;28;20401;-61
2024/02/19 03:08:36;;;;;;;44.45;42.05;;;;;;;;;;5065048;28;20496;-62
2024/02/19 03:11:03;;;;;;;39.13;37.13;;;;;;;;;;5064998;28;20339;-61
2024/02/19 03:13:30;;;;;;;43.10;40.90;;;;;;;;;;5062886;28;20213;-61
2024/02/19 03:15:56;;;;;;;39.45;37.22;;;;;;;;;;5061041;28;20524;-61
2024/02/19 03:18:21;;;;;;;40.47;38.42;;;;;;;;;;5063050;28;20036;-62
2024/02/19 03:20:46;;;;;;;37.78;35.88;;;;;;;;;;5064722;28;20547;-62
2024/02/19 03:23:12;;;;;;;40.13;38.05;;;;;;;;;;5061128;28;20273;-62
2024/02/19 03:25:37;;;;;;;40.75;38.65;;;;;;;;;;5061233;28;20637;-61
2024/02/19 03:28:03;;;;;;;45.13;42.85;;;;;;;;;;5065137;28;20494;-62
2024/02/19 03:30:30;;;;;;;41.55;39.45;;;;;;;;;;5063503;28;20068;-62
2024/02/19 03:32:56;;;;;;;42.38;39.30;;;;;;;;;;5061113;28;20119;-61
2024/02/19 03:35:21;;;;;;;45.20;42.90;;;;;;;;;;5078884;28;20703;-61
2024/02/19 03:37:46;;;;;;;41.42;39.22;;;;;;;;;;5064529;28;20021;-61
2024/02/19 03:40:12;;;;;;;35.88;34.05;;;;;;;;;;5060307;28;20537;-62
2024/02/19 03:42:37;;;;;;;37.88;35.95;;;;;;;;;;5065511;28;20722;-62
2024/02/19 03:45:04;;;;;;;35.88;33.92;;;;;;;;;;5058260;28;20043;-61
2024/02/19 03:47:29;;;;;;;33.50;31.80;;;;;;;;;;5063670;28;20037;-61
2024/02/19 03:49:55;;;;;;;34.97;33.17;;;;;;;;;;5062119;28;20095;-62
2024/02/19 03:52:20;;;;;;;35.08;33.28;;;;;;;;;;5062932;28;20044;-62
2024/02/19 03:54:46;;;;;;;32.28;30.58;;;;;;;;;;5062419;28;20052;-62
2024/02/19 03:57:11;;;;;;;29.38;27.70;;;;;;;;;;5059337;28;20029;-62
2024/02/19 03:59:36;;;;;;;30.02;28.42;;;;;;;;;;5063851;28;20024;-61
2024/02/19 04:02:01;;;;;;;27.85;26.25;;;;;;;;;;5062253;28;20040;-61
2024/02/19 04:04:27;;;;;;;26.10;24.70;;;;;;;;;;5064435;28;20039;-61
2024/02/19 04:06:52;;;;;;;27.88;26.40;;;;;;;;;;5060636;28;20876;-61
2024/02/19 04:09:17;;;;;;;29.42;27.77;;;;;;;;;;5061058;28;20071;-62
2024/02/19 04:11:44;;;;;;;27.50;26.08;;;;;;;;;;5060557;28;20051;-61
2024/02/19 04:14:09;;;;;;;29.67;28.08;;;;;;;;;;5060476;28;20618;-61
2024/02/19 04:16:35;;;;;;;27.75;26.30;;;;;;;;;;5062158;28;20051;-62
2024/02/19 04:19:00;;;;;;;29.40;27.90;;;;;;;;;;5065362;28;20089;-62
2024/02/19 04:21:25;;;;;;;30.08;28.50;;;;;;;;;;5064539;28;20029;-62
2024/02/19 04:23:51;;;;;;;28.50;27.00;;;;;;;;;;5063589;28;20166;-61
2024/02/19 04:26:16;;;;;;;29.30;27.80;;;;;;;;;;5065060;28;20507;-61
2024/02/19 04:28:41;;;;;;;27.27;25.88;;;;;;;;;;5062507;28;20047;-61
2024/02/19 04:31:07;;;;;;;28.02;26.52;;;;;;;;;;5062553;28;20505;-62
2024/02/19 04:33:32;;;;;;;26.75;25.35;;;;;;;;;;5068212;28;20128;-62
2024/02/19 04:35:57;;;;;;;30.02;28.45;;;;;;;;;;5067428;28;20029;-61
2024/02/19 04:38:23;;;;;;;28.10;26.60;;;;;;;;;;5065138;28;20037;-61
2024/02/19 04:40:48;;;;;;;27.65;26.23;;;;;;;;;;5067436;28;20028;-62
2024/02/19 04:43:13;;;;;;;28.05;26.55;;;;;;;;;;5066498;28;20462;-61
2024/02/19 04:45:39;;;;;;;27.15;25.65;;;;;;;;;;5068712;28;20044;-61
2024/02/19 04:48:04;;;;;;;24.80;23.50;;;;;;;;;;5066253;28;20039;-61
2024/02/19 04:50:30;;;;;;;26.00;24.58;;;;;;;;;;5061410;28;20036;-61
2024/02/19 04:52:55;;;;;;;25.52;24.17;;;;;;;;;;5070048;28;20048;-62
2024/02/19 04:55:21;;;;;;;29.38;27.77;;;;;;;;;;5049405;28;20032;-61
2024/02/19 04:57:46;;;;;;;28.27;26.77;;;;;;;;;;5070892;28;20143;-62
2024/02/19 05:00:12;;;;;;;29.02;27.52;;;;;;;;;;5067035;28;20137;-62
2024/02/19 05:02:37;;;;;;;26.45;24.85;;;;;;;;;;5069086;28;20036;-61
2024/02/19 05:05:03;;;;;;;27.25;25.75;;;;;;;;;;5067513;28;20063;-61
2024/02/19 05:07:28;;;;;;;25.67;24.27;;;;;;;;;;5061602;28;20040;-61
2024/02/19 05:09:53;;;;;;;29.20;27.60;;;;;;;;;;5064857;28;20024;-62
2024/02/19 05:12:19;;;;;;;26.75;25.35;;;;;;;;;;5065421;28;20020;-62
2024/02/19 05:14:44;;;;;;;28.52;27.02;;;;;;;;;;5066881;28;20055;-61
2024/02/19 05:17:09;;;;;;;29.60;28.10;;;;;;;;;;5065557;28;20394;-61
2024/02/19 05:19:35;;;;;;;30.00;28.42;;;;;;;;;;5062872;28;20058;-63
2024/02/19 05:22:00;;;;;;;30.10;28.50;;;;;;;;;;5064481;28;20033;-63
2024/02/19 05:24:26;;;;;;;28.65;27.13;;;;;;;;;;5063560;28;20056;-63
2024/02/19 05:26:51;;;;;;;30.58;28.98;;;;;;;;;;5062190;28;20101;-63
2024/02/19 05:29:16;;;;;;;29.77;28.17;;;;;;;;;;5064912;28;20100;-63
2024/02/19 05:31:42;;;;;;;30.27;28.67;;;;;;;;;;5068368;28;20461;-64
2024/02/19 05:34:08;;;;;;;31.38;29.75;;;;;;;;;;5066590;28;20062;-63
2024/02/19 05:36:34;;;;;;;30.65;28.95;;;;;;;;;;5064286;28;20141;-63
2024/02/19 05:38:59;;;;;;;34.05;32.28;;;;;;;;;;5067114;28;20074;-63
2024/02/19 05:41:26;;;;;;;35.58;33.70;;;;;;;;;;5067208;28;20071;-63
2024/02/19 05:43:51;;;;;;;31.08;29.48;;;;;;;;;;5062520;28;20036;-63
2024/02/19 05:46:18;;;;;;;33.00;31.00;;;;;;;;;;5067105;28;20036;-63
2024/02/19 05:48:43;;;;;;;34.22;32.33;;;;;;;;;;5066519;28;20129;-63
2024/02/19 05:51:11;;;;;;;35.38;33.58;;;;;;;;;;5063973;28;20493;-63
2024/02/19 05:53:37;;;;;;;33.08;31.20;;;;;;;;;;5064877;28;20498;-63
2024/02/19 05:56:05;;;;;;;32.70;31.00;;;;;;;;;;5064458;28;20035;-62
2024/02/19 05:58:31;;;;;;;34.55;32.75;;;;;;;;;;5064438;28;20029;-63
2024/02/19 06:00:57;;;;;;;33.03;31.33;;;;;;;;;;5067135;28;20036;-63
2024/02/19 06:03:25;;;;;;;32.97;31.25;;;;;;;;;;5066328;28;20027;-63
2024/02/19 06:05:50;;;;;;;35.45;33.65;;;;;;;;;;5064681;28;20047;-62
2024/02/19 06:08:16;;;;;;;33.78;31.98;;;;;;;;;;5063732;28;21033;-62
2024/02/19 06:10:45;;;;;;;34.95;33.15;;;;;;;;;;5062542;28;20071;-62
2024/02/19 06:13:14;;;;;;;34.47;32.67;;;;;;;;;;5062651;28;20062;-62
2024/02/19 06:15:42;;;;;;;33.63;31.83;;;;;;;;;;5063593;28;20036;-62
2024/02/19 06:18:07;;;;;;;34.22;32.42;;;;;;;;;;5065071;28;20070;-62
2024/02/19 06:20:33;;;;;;;34.78;32.97;;;;;;;;;;5063596;28;20064;-62
2024/02/19 06:22:59;;;;;;;33.38;31.58;;;;;;;;;;5061600;28;20081;-63
2024/02/19 06:25:25;;;;;;;35.28;33.47;;;;;;;;;;5062456;28;20128;-52
2024/02/19 06:27:50;;;;;;;34.45;32.70;;;;;;;;;;5064874;28;20036;-54
2024/02/19 06:30:17;;;;;;;33.30;31.50;;;;;;;;;;5066545;28;20040;-50
2024/02/19 06:32:42;;;;;;;33.17;31.48;;;;;;;;;;5063346;28;20509;-52
2024/02/19 06:35:08;;;;;;;35.28;33.47;;;;;;;;;;5064144;28;20039;-51
2024/02/19 06:37:34;;;;;;;35.90;33.90;;;;;;;;;;5061519;28;20029;-54
2024/02/19 06:39:59;;;;;;;31.90;30.23;;;;;;;;;;5065474;28;20109;-53
2024/02/19 06:42:24;;;;;;;33.40;31.70;;;;;;;;;;5065667;28;20051;-52
2024/02/19 06:44:49;;;;;;;34.95;33.15;;;;;;;;;;5071481;28;20077;-53
2024/02/19 06:47:15;;;;;;;34.00;32.00;;;;;;;;;;5061106;28;20107;-54
2024/02/19 06:49:40;;;;;;;33.13;31.42;;;;;;;;;;5064484;28;20619;-52
2024/02/19 06:52:06;;;;;;;34.47;32.67;;;;;;;;;;5060253;28;20673;-51
2024/02/19 06:54:32;;;;;;;32.75;31.05;;;;;;;;;;5062061;28;20035;-50
2024/02/19 06:56:57;;;;;;;33.97;32.22;;;;;;;;;;5066122;28;20040;-52
2024/02/19 06:59:22;;;;;;;34.90;33.10;;;;;;;;;;5064015;28;20035;-54
2024/02/19 07:01:48;;;;;;;33.10;31.40;;;;;;;;;;5066635;28;20033;-52
2024/02/19 07:04:13;;;;;;;34.33;32.58;;;;;;;;;;5062558;28;20115;-52
2024/02/19 07:06:39;;;;;;;32.55;30.65;;;;;;;;;;5065073;28;20061;-54
2024/02/19 07:09:05;;;;;;;30.45;28.85;;;;;;;;;;5057833;28;20057;-54
2024/02/19 07:11:30;;;;;;;32.70;31.00;;;;;;;;;;5062824;28;20220;-53
2024/02/19 07:13:56;;;;;;;31.83;30.17;;;;;;;;;;5066168;28;20537;-55
2024/02/19 07:16:22;;;;;;;27.80;26.38;;;;;;;;;;5066076;28;20035;-52
2024/02/19 07:18:47;;;;;;;30.30;28.50;;;;;;;;;;5066830;28;20443;-52
2024/02/19 07:21:13;;;;;;;29.38;27.88;;;;;;;;;;5061065;28;20035;-53
2024/02/19 07:23:39;;;;;;;30.55;28.92;;;;;;;;;;5066383;28;20900;-52
2024/02/19 07:26:04;;;;;;;32.53;30.52;;;;;;;;;;5060042;28;20042;-54
2024/02/19 07:28:29;;;;;;;29.60;28.05;;;;;;;;;;5060996;28;20429;-52
2024/02/19 07:30:55;;;;;;;32.60;30.80;;;;;;;;;;5061626;28;20036;-55
2024/02/19 07:33:21;;;;;;;31.25;29.45;;;;;;;;;;5062849;28;20039;-54
2024/02/19 07:35:46;;;;;;;28.83;27.13;;;;;;;;;;5064291;28;20025;-54
2024/02/19 07:38:11;;;;;;;28.20;26.70;;;;;;;;;;5062649;28;20032;-53
2024/02/19 07:40:37;;;;;;;27.83;26.33;;;;;;;;;;5062142;28;20060;-55
2024/02/19 07:43:03;;;;;;;26.02;24.63;;;;;;;;;;5062216;28;20032;-51
2024/02/19 07:45:28;;;;;;;24.25;22.95;;;;;;;;;;5058475;28;20037;-49
2024/02/19 07:47:53;;;;;;;25.23;23.92;;;;;;;;;;5060597;28;20042;-55
2024/02/19 07:50:19;;;;;;;26.05;24.65;;;;;;;;;;5057645;28;20033;-54
2024/02/19 07:52:45;;;;;;;23.85;22.58;;;;;;;;;;5065611;28;20028;-52
2024/02/19 07:55:10;;;;;;;24.23;22.90;;;;;;;;;;5058835;28;20041;-53
2024/02/19 07:57:36;;;;;;;24.00;22.50;;;;;;;;;;5067717;28;20123;-56
2024/02/19 08:00:01;;;;;;;26.10;24.73;;;;;;;;;;5063428;28;20032;-56
2024/02/19 08:02:27;;;;;;;23.90;22.60;;;;;;;;;;5062912;28;20115;-53
2024/02/19 08:04:52;;;;;;;23.70;22.42;;;;;;;;;;5063763;28;20411;-54
2024/02/19 08:07:18;;;;;;;24.73;23.42;;;;;;;;;;5064769;28;20021;-53
2024/02/19 08:09:44;;;;;;;23.35;22.10;;;;;;;;;;5065547;28;20025;-53
2024/02/19 08:12:09;;;;;;;25.23;23.88;;;;;;;;;;5065910;28;20036;-64
2024/02/19 08:14:35;;;;;;;26.13;24.73;;;;;;;;;;5072203;28;20040;-64
2024/02/19 08:17:01;;;;;;;25.63;24.27;;;;;;;;;;5066471;28;20041;-63
2024/02/19 08:19:26;;;;;;;28.00;26.50;;;;;;;;;;5069333;28;20029;-64
2024/02/19 08:21:53;;;;;;;25.70;24.35;;;;;;;;;;5066513;28;20062;-64
2024/02/19 08:24:18;;;;;;;28.73;27.23;;;;;;;;;;5069863;28;20029;-63
2024/02/19 08:26:44;;;;;;;28.65;27.15;;;;;;;;;;5067814;28;20051;-63
2024/02/19 08:29:10;;;;;;;25.88;24.48;;;;;;;;;;5053546;28;20041;-64
2024/02/19 08:31:35;;;;;;;24.45;23.15;;;;;;;;;;5066542;28;20036;-64
2024/02/19 08:34:00;;;;;;;24.98;23.67;;;;;;;;;;5066195;28;20046;-64
2024/02/19 08:36:26;;;;;;;26.08;24.67;;;;;;;;;;5065740;28;20102;-64
2024/02/19 08:38:55;;;;;;;28.88;27.27;;;;;;;;;;5068692;28;20028;-64
2024/02/19 08:41:21;;;;;;;30.90;29.25;;;;;;;;;;5065441;28;20618;-64
2024/02/19 08:43:47;;;;;;;27.17;25.58;;;;;;;;;;5065950;28;20024;-65
2024/02/19 08:46:15;;;;;;;29.25;27.65;;;;;;;;;;5068332;28;20042;-62
2024/02/19 08:48:41;;;;;;;37.67;35.78;;;;;;;;;;5064609;28;20053;-62
2024/02/19 08:51:08;;;;;;;37.08;34.97;;;;;;;;;;5067157;28;20036;-62
2024/02/19 08:53:33;;;;;;;45.42;43.13;;;;;;;;;;5061401;28;20118;-63
2024/02/19 08:55:58;;;;;;;35.53;33.70;;;;;;;;;;5069772;28;20064;-63
2024/02/19 08:58:25;;;;;;;32.72;31.02;;;;;;;;;;5064521;28;20029;-62
2024/02/19 09:00:51;;;;;;;37.78;35.85;;;;;;;;;;5063828;28;20029;-63
2024/02/19 09:03:17;;;;;;;50.50;47.95;;;;;;;;;;5065306;28;20052;-63
2024/02/19 09:05:42;;;;;;;70.13;66.63;;;;;;;;;;5062353;28;20560;-49
2024/02/19 09:08:10;;;;;;;67.55;64.15;;;;;;;;;;5065576;28;20029;-49
2024/02/19 09:10:36;;;;;;;68.95;65.53;;;;;;;;;;5061952;28;20870;-53
2024/02/19 09:13:01;;;;;;;77.18;73.32;;;;;;;;;;5066421;28;20083;-62
2024/02/19 09:15:27;;;;;;;70.68;67.18;;;;;;;;;;5051240;28;20446;-61
2024/02/19 09:17:52;;;;;;;83.10;78.95;;;;;;;;;;5063744;28;20077;-62
2024/02/19 09:20:17;;;;;;;85.00;80.78;;;;;;;;;;5061380;28;20101;-64
2024/02/19 09:22:43;;;;;;;78.05;74.15;;;;;;;;;;5062353;28;20613;-64
2024/02/19 09:25:08;;;;;;;72.55;68.95;;;;;;;;;;5061819;28;20457;-64
2024/02/19 09:27:35;;;;;;;83.20;79.07;;;;;;;;;;5057770;28;20074;-64
2024/02/19 09:30:01;;;;;;;81.00;75.78;;;;;;;;;;5060768;28;20033;-63
2024/02/19 09:32:27;;;;;;;77.75;73.90;;;;;;;;;;5058765;28;20469;-63
2024/02/19 09:34:52;;;;;;;77.88;72.68;;;;;;;;;;5062165;28;20112;-63
2024/02/19 09:37:17;;;;;;;71.82;68.22;;;;;;;;;;5066265;28;20123;-63
2024/02/19 09:39:48;;;;;;;82.07;77.97;;;;;;;;;;5065660;28;20036;-63
2024/02/19 09:42:14;;;;;;;77.18;72.97;;;;;;;;;;5065132;28;20050;-63
2024/02/19 09:44:39;;;;;;;73.72;70.03;;;;;;;;;;5063222;28;20422;-63
2024/02/19 09:47:07;;;;;;;73.30;69.25;;;;;;;;;;5066295;28;20335;-62
2024/02/19 09:49:32;;;;;;;75.38;71.57;;;;;;;;;;5064436;28;20378;-63
2024/02/19 09:52:01;;;;;;;71.15;67.55;;;;;;;;;;5062916;28;20112;-63
2024/02/19 09:54:28;;;;;;;61.20;58.08;;;;;;;;;;5061581;28;20037;-62
2024/02/19 09:56:57;;;;;;;49.47;46.97;;;;;;;;;;5065142;28;20036;-62
2024/02/19 09:59:22;;;;;;;54.10;51.40;;;;;;;;;;5063945;28;20028;-63
2024/02/19 10:01:49;;;;;;;55.15;52.35;;;;;;;;;;5063639;28;20615;-64
2024/02/19 10:04:15;;;;;;;53.35;50.63;;;;;;;;;;5054636;28;20077;-65
2024/02/19 10:06:41;;;;;;;51.05;48.45;;;;;;;;;;5060897;28;20032;-62
2024/02/19 10:09:07;;;;;;;43.75;41.53;;;;;;;;;;5061847;28;20033;-62
2024/02/19 10:11:33;;;;;;;44.40;42.15;;;;;;;;;;5059724;28;20064;-62
2024/02/19 10:13:59;;;;;;;48.40;45.95;;;;;;;;;;5062122;28;20032;-61
2024/02/19 10:16:24;;;;;;;49.28;46.78;;;;;;;;;;5055969;28;20040;-61
2024/02/19 10:18:52;;;;;;;34.65;32.85;;;;;;;;;;5060424;28;20040;-61
2024/02/19 10:21:18;;;;;;;33.08;31.38;;;;;;;;;;5061307;28;20032;-61
2024/02/19 10:23:46;;;;;;;25.17;23.88;;;;;;;;;;5060699;28;20081;-61
2024/02/19 10:26:13;;;;;;;21.92;20.73;;;;;;;;;;5061755;28;20367;-62
2024/02/19 10:28:39;;;;;;;22.73;21.52;;;;;;;;;;5059384;28;20037;-61
2024/02/19 10:31:05;;;;;;;23.98;22.67;;;;;;;;;;5059796;28;20115;-62
2024/02/19 10:33:34;;;;;;;44.35;42.05;;;;;;;;;;5061675;28;20119;-62
2024/02/19 10:36:02;;;;;;;31.52;29.88;;;;;;;;;;5062688;28;20116;-62
2024/02/19 10:38:28;;;;;;;38.75;36.75;;;;;;;;;;5061536;28;20040;-62
2024/02/19 10:40:53;;;;;;;43.90;41.67;;;;;;;;;;5065107;28;20058;-61
2024/02/19 10:43:19;;;;;;;46.75;44.38;;;;;;;;;;5064020;28;20044;-62
2024/02/19 10:45:47;;;;;;;46.97;44.53;;;;;;;;;;5063155;28;20036;-61
2024/02/19 10:48:13;;;;;;;42.05;39.95;;;;;;;;;;5063211;28;20048;-61
2024/02/19 10:50:39;;;;;;;39.42;37.42;;;;;;;;;;5060865;28;20056;-62
2024/02/19 10:53:08;;;;;;;38.22;36.28;;;;;;;;;;5059942;28;20129;-62
2024/02/19 10:55:36;;;;;;;41.25;39.13;;;;;;;;;;5058377;28;20542;-61
2024/02/19 10:58:01;;;;;;;45.30;43.00;;;;;;;;;;5061296;28;20034;-61
2024/02/19 11:00:27;;;;;;;48.33;45.88;;;;;;;;;;5060500;28;20035;-61
2024/02/19 11:03:07;;;;;;;42.47;40.33;;;;;;;;;;5058625;28;20493;-61
2024/02/19 11:05:43;;;;;;;43.70;41.50;;;;;;;;;;5077616;28;20064;-61
2024/02/19 11:08:22;;;;;;;44.72;42.45;;;;;;;;;;5061491;28;20390;-62
2024/02/19 11:10:48;;;;;;;44.30;42.05;;;;;;;;;;5062543;28;20040;-61
2024/02/19 11:13:18;;;;;;;45.13;42.83;;;;;;;;;;5061970;28;20048;-61
2024/02/19 11:15:44;;;;;;;49.33;46.83;;;;;;;;;;5062077;28;20571;-62
2024/02/19 11:18:19;;;;;;;45.40;42.80;;;;;;;;;;5058215;28;20454;-61
2024/02/19 11:20:46;;;;;;;43.10;40.90;;;;;;;;;;5064897;28;20115;-62
2024/02/19 11:23:14;;;;;;;39.47;37.47;;;;;;;;;;5066476;28;20043;-61
2024/02/19 11:25:40;;;;;;;39.38;37.38;;;;;;;;;;5059286;28;20108;-61
2024/02/19 11:28:05;;;;;;;36.50;34.60;;;;;;;;;;5063748;28;20123;-62
2024/02/19 11:30:31;;;;;;;41.10;38.83;;;;;;;;;;5065341;28;20473;-62
2024/02/19 11:33:04;;;;;;;38.55;36.55;;;;;;;;;;5064043;28;20046;-62
2024/02/19 11:35:30;;;;;;;29.58;28.00;;;;;;;;;;5065335;28;20044;-61
2024/02/19 11:37:56;;;;;;;28.25;26.75;;;;;;;;;;5065364;28;20041;-61
2024/02/19 11:40:27;;;;;;;25.35;24.00;;;;;;;;;;5066902;28;20120;-61
2024/02/19 11:42:52;;;;;;;;;;;;;;;;;;5069644;28;20036;-62
2024/02/19 11:45:18;;;;;;;31.02;29.17;;;;;;;;;;5068746;28;19920;-62
2024/02/19 11:47:45;;;;;;;26.98;25.58;;;;;;;;;;5067963;28;20036;-61
2024/02/19 11:50:15;;;;;;;23.33;22.05;;;;;;;;;;5067520;28;20036;-60
2024/02/19 11:52:42;;;;;;;25.55;24.17;;;;;;;;;;5064289;28;20104;-61
2024/02/19 11:55:18;;;;;;;24.65;23.35;;;;;;;;;;5068077;28;20060;-61
2024/02/19 11:57:43;;;;;;;24.17;22.88;;;;;;;;;;5067487;28;20067;-62
2024/02/19 12:00:11;;;;;;;23.80;22.50;;;;;;;;;;5054391;28;20032;-62
2024/02/19 12:02:47;;;;;;;29.40;27.90;;;;;;;;;;5059719;28;20149;-61
2024/02/19 12:05:12;;;;;;;31.75;30.10;;;;;;;;;;5064801;28;20043;-62
2024/02/19 12:07:38;;;;;;;30.50;28.90;;;;;;;;;;5063914;28;20036;-62
2024/02/19 12:10:08;;;;;;;30.30;28.70;;;;;;;;;;5068486;28;20045;-61
2024/02/19 12:12:35;;;;;;;32.22;30.52;;;;;;;;;;5066518;28;20043;-62
2024/02/19 12:18:24;;;;;;;32.88;31.17;;;;;;;;;;5048750;28;20059;-62
2024/02/19 12:20:49;;;;;;;31.05;29.45;;;;;;;;;;5059558;28;20027;-62
2024/02/19 12:23:15;;;;;;;31.25;29.60;;;;;;;;;;5070046;28;20044;-62
2024/02/19 12:25:41;;;;;;;31.35;29.75;;;;;;;;;;5061625;28;20036;-62
2024/02/19 12:28:06;;;;;;;33.47;31.77;;;;;;;;;;5068100;28;20047;-62
2024/02/19 12:30:32;;;;;;;32.95;31.25;;;;;;;;;;5065641;28;20041;-62
2024/02/19 12:32:57;;;;;;;32.28;30.50;;;;;;;;;;5063789;28;20101;-63
2024/02/19 12:35:22;;;;;;;36.05;34.15;;;;;;;;;;5063485;28;20051;-63
2024/02/19 12:37:48;;;;;;;38.47;36.47;;;;;;;;;;5064371;28;20040;-62
2024/02/19 12:40:13;;;;;;;37.55;35.65;;;;;;;;;;5063999;28;20067;-62
2024/02/19 12:42:40;;;;;;;40.53;38.45;;;;;;;;;;5063814;28;20882;-62
2024/02/19 12:45:06;;;;;;;36.90;34.72;;;;;;;;;;5062797;28;20036;-61
2024/02/19 12:47:33;;;;;;;32.45;30.75;;;;;;;;;;5065163;28;20119;-61
2024/02/19 12:49:58;;;;;;;35.65;33.83;;;;;;;;;;5066800;28;20119;-61
2024/02/19 12:52:26;;;;;;;39.40;37.30;;;;;;;;;;5063689;28;20123;-61
2024/02/19 12:54:55;;;;;;;41.92;39.83;;;;;;;;;;5069108;28;20109;-61
2024/02/19 12:57:21;;;;;;;38.00;36.10;;;;;;;;;;5068848;28;20032;-61
2024/02/19 12:59:47;;;;;;;36.90;35.00;;;;;;;;;;5067002;28;20559;-62
2024/02/19 13:02:15;;;;;;;43.45;41.25;;;;;;;;;;5068547;28;20068;-62
2024/02/19 13:04:44;;;;;;;36.03;34.17;;;;;;;;;;5062389;28;20031;-62
2024/02/19 13:07:10;;;;;;;36.20;34.35;;;;;;;;;;5065787;28;20071;-62
2024/02/19 13:09:35;;;;;;;40.75;38.58;;;;;;;;;;5065304;28;20108;-62
2024/02/19 13:12:01;;;;;;;44.30;41.15;;;;;;;;;;5063179;28;20060;-62
2024/02/19 13:14:28;;;;;;;44.15;41.95;;;;;;;;;;5069930;28;20494;-62
2024/02/19 13:16:57;;;;;;;44.92;42.47;;;;;;;;;;5064066;28;20039;-61
2024/02/19 13:19:22;;;;;;;47.80;45.20;;;;;;;;;;5065097;28;20485;-62
2024/02/19 13:21:47;;;;;;;35.20;33.35;;;;;;;;;;5062581;28;20093;-61
2024/02/19 13:24:13;;;;;;;29.90;28.23;;;;;;;;;;5066825;28;20032;-62
2024/02/19 13:26:39;;;;;;;26.58;25.15;;;;;;;;;;5066422;28;20024;-63
2024/02/19 13:29:04;;;;;;;28.33;26.77;;;;;;;;;;5066775;28;20102;-61
2024/02/19 13:31:30;;;;;;;28.67;27.17;;;;;;;;;;5064193;28;20024;-62
2024/02/19 13:33:55;;;;;;;37.20;35.30;;;;;;;;;;5064865;28;20046;-62
2024/02/19 13:36:20;;;;;;;40.75;38.67;;;;;;;;;;5066425;28;20028;-61
2024/02/19 13:38:49;;;;;;;41.85;39.75;;;;;;;;;;5064821;28;20731;-61
2024/02/19 13:41:15;;;;;;;47.92;45.53;;;;;;;;;;5065369;28;20592;-62
2024/02/19 13:43:44;;;;;;;44.08;41.85;;;;;;;;;;5064822;28;20135;-62
2024/02/19 13:46:10;;;;;;;47.28;44.78;;;;;;;;;;5065536;28;20039;-62
2024/02/19 13:48:36;;;;;;;47.72;45.33;;;;;;;;;;5064235;28;20041;-61
2024/02/19 13:51:02;;;;;;;48.30;45.90;;;;;;;;;;5061720;28;20037;-62
2024/02/19 13:53:29;;;;;;;45.30;42.95;;;;;;;;;;5065158;28;20089;-63
2024/02/19 13:55:56;;;;;;;44.97;42.67;;;;;;;;;;5061979;28;20421;-62
2024/02/19 13:58:22;;;;;;;45.08;42.67;;;;;;;;;;5066167;28;20273;-62
2024/02/19 14:00:48;;;;;;;44.22;42.00;;;;;;;;;;5062704;28;20693;-50
2024/02/19 14:03:14;;;;;;;41.47;39.38;;;;;;;;;;5059070;28;20140;-50
2024/02/19 14:05:39;;;;;;;39.75;37.75;;;;;;;;;;5063163;28;20036;-61
2024/02/19 14:08:05;;;;;;;35.50;33.60;;;;;;;;;;5060186;28;20040;-61
2024/02/19 14:10:32;;;;;;;34.53;32.72;;;;;;;;;;5065597;28;20370;-61
2024/02/19 14:12:59;;;;;;;32.05;30.35;;;;;;;;;;5062855;28;20036;-61